Time;durP1;ratioP1;P1;durP2;ratioP2;P2;SDS_P1;SDS_P2;PMS_P1;PMS_P2;Temp;Humidity;BMP_temperature;BMP_pressure;BME280_temperature;BME280_humidity;BME280_pressure;Samples;Min_cycle;Max_cycle;Signal;HPM_P1;HPM_P2
2022/05/15 00:02:12;;;;;;;22.15;6.97;;;11.30;99.90;;;;;;5022914;28;20461;-81
2022/05/15 00:04:38;;;;;;;24.92;6.45;;;11.20;99.90;;;;;;5040173;28;20069;-81
2022/05/15 00:07:05;;;;;;;26.27;5.70;;;11.20;99.90;;;;;;5036974;28;20378;-80
2022/05/15 00:09:30;;;;;;;22.83;6.20;;;11.20;99.90;;;;;;5027508;28;20041;-80
2022/05/15 00:11:56;;;;;;;24.60;5.97;;;11.20;99.90;;;;;;5046839;28;20044;-80
2022/05/15 00:14:22;;;;;;;22.77;6.15;;;11.10;99.90;;;;;;5022708;28;20133;-80
2022/05/15 00:16:47;;;;;;;24.15;6.88;;;11.10;99.90;;;;;;5021147;28;20084;-80
2022/05/15 00:19:13;;;;;;;22.48;7.15;;;11.00;99.90;;;;;;5037029;28;20053;-80
2022/05/15 00:21:39;;;;;;;27.42;6.78;;;11.00;99.90;;;;;;5026326;28;20049;-80
2022/05/15 00:24:06;;;;;;;23.33;7.07;;;11.00;99.90;;;;;;5001967;28;20045;-81
2022/05/15 00:26:37;;;;;;;27.58;7.80;;;11.00;99.90;;;;;;5026801;28;20110;-80
2022/05/15 00:29:02;;;;;;;25.52;7.22;;;11.00;99.90;;;;;;5018860;28;20041;-80
2022/05/15 00:31:28;;;;;;;25.85;7.60;;;10.90;99.90;;;;;;5018485;28;20346;-80
2022/05/15 00:33:54;;;;;;;26.63;7.82;;;11.00;99.90;;;;;;5021249;28;20042;-80
2022/05/15 00:36:20;;;;;;;27.52;6.70;;;11.00;99.90;;;;;;5022531;28;20492;-79
2022/05/15 00:38:46;;;;;;;25.88;6.35;;;10.90;99.90;;;;;;5021093;28;20037;-80
2022/05/15 00:41:12;;;;;;;22.50;7.80;;;11.00;99.90;;;;;;5036797;28;20048;-80
2022/05/15 00:43:49;;;;;;;24.63;7.38;;;11.00;99.90;;;;;;5044618;28;20511;-80
2022/05/15 00:46:20;;;;;;;26.70;7.18;;;11.00;99.90;;;;;;5024672;28;20041;-80
2022/05/15 00:48:46;;;;;;;21.85;6.60;;;11.10;99.90;;;;;;5019772;28;20464;-80
2022/05/15 00:51:42;;;;;;;28.45;8.25;;;11.10;99.90;;;;;;5021791;28;20156;-80
2022/05/15 00:54:30;;;;;;;22.55;6.63;;;12.20;99.90;;;;;;5035527;28;20044;-80
2022/05/15 00:57:11;;;;;;;18.65;7.75;;;11.00;99.90;;;;;;5020589;28;20045;-79
2022/05/15 01:00:11;;;;;;;41.13;18.02;;;10.90;99.90;;;;;;5021665;28;20064;-80
2022/05/15 01:02:41;;;;;;;26.77;7.82;;;10.90;99.90;;;;;;5010765;28;20155;-80
2022/05/15 01:05:08;;;;;;;25.38;7.00;;;10.90;99.90;;;;;;5022220;28;20546;-79
2022/05/15 01:07:34;;;;;;;22.45;7.25;;;10.80;99.90;;;;;;5021629;28;20094;-80
2022/05/15 01:10:00;;;;;;;25.52;7.78;;;10.90;99.90;;;;;;5036948;28;20171;-79
2022/05/15 01:12:27;;;;;;;30.02;7.25;;;10.90;99.90;;;;;;5024625;28;20041;-80
2022/05/15 01:14:53;;;;;;;26.73;6.95;;;10.90;99.90;;;;;;5037760;28;20052;-79
2022/05/15 01:17:19;;;;;;;24.00;7.50;;;10.80;99.90;;;;;;5036732;28;20049;-81
2022/05/15 01:19:45;;;;;;;24.00;7.05;;;10.80;99.90;;;;;;5019180;28;20045;-80
2022/05/15 01:22:15;;;;;;;33.38;6.72;;;10.80;99.90;;;;;;5018006;28;20046;-80
2022/05/15 01:24:42;;;;;;;24.58;7.28;;;10.70;99.90;;;;;;5043213;28;20421;-80
2022/05/15 01:27:10;;;;;;;21.67;6.35;;;10.70;99.90;;;;;;5021169;28;20044;-80
2022/05/15 01:29:41;;;;;;;25.55;6.97;;;10.70;99.90;;;;;;5022173;28;20033;-80
2022/05/15 01:32:09;;;;;;;17.83;6.00;;;11.50;99.90;;;;;;5002463;28;20051;-81
2022/05/15 01:34:36;;;;;;;28.77;6.72;;;10.70;99.90;;;;;;5005530;28;20045;-81
2022/05/15 01:37:02;;;;;;;23.73;6.82;;;10.70;99.90;;;;;;5008831;28;20132;-81
2022/05/15 01:39:29;;;;;;;21.02;6.25;;;10.70;99.90;;;;;;5026158;28;20124;-81
2022/05/15 01:41:55;;;;;;;21.27;6.88;;;10.70;99.90;;;;;;5025680;28;20069;-81
2022/05/15 01:44:21;;;;;;;26.67;7.10;;;10.60;99.90;;;;;;5026008;28;20097;-81
2022/05/15 01:46:48;;;;;;;20.33;6.32;;;10.60;99.90;;;;;;5009236;28;20439;-81
2022/05/15 01:49:15;;;;;;;30.48;7.45;;;10.60;99.90;;;;;;5039276;28;20034;-79
2022/05/15 01:51:42;;;;;;;22.95;7.20;;;10.60;99.90;;;;;;5006257;28;20072;-80
2022/05/15 01:54:13;;;;;;;26.10;6.85;;;10.50;99.90;;;;;;5024595;28;20037;-81
2022/05/15 01:56:40;;;;;;;23.30;6.90;;;11.00;99.90;;;;;;5043293;28;20049;-81
2022/05/15 01:59:09;;;;;;;25.52;6.22;;;10.50;99.90;;;;;;5021996;28;20432;-81
2022/05/15 02:01:35;;;;;;;23.23;7.32;;;10.10;99.90;;;;;;5005684;28;20049;-82
2022/05/15 02:04:00;;;;;;;21.98;7.30;;;11.60;99.90;;;;;;5040746;28;20574;-79
2022/05/15 02:06:28;;;;;;;22.42;7.32;;;10.50;99.90;;;;;;5025377;28;20041;-80
2022/05/15 02:08:54;;;;;;;18.58;6.20;;;10.40;99.90;;;;;;5024384;28;20045;-79
2022/05/15 02:11:21;;;;;;;25.13;6.88;;;10.50;99.90;;;;;;5004710;28;20404;-80
2022/05/15 02:13:46;;;;;;;17.15;6.05;;;10.40;99.90;;;;;;5039630;28;20108;-81
2022/05/15 02:16:12;;;;;;;23.23;6.32;;;10.40;99.90;;;;;;5043077;28;20036;-80
2022/05/15 02:18:37;;;;;;;21.45;6.47;;;10.40;99.90;;;;;;5018029;28;20049;-80
2022/05/15 02:21:06;;;;;;;22.00;6.93;;;10.40;99.90;;;;;;5007286;28;20045;-81
2022/05/15 02:23:32;;;;;;;19.15;5.68;;;10.30;99.90;;;;;;5008129;28;20480;-80
2022/05/15 02:25:58;;;;;;;25.58;7.20;;;10.30;99.90;;;;;;5006890;28;20041;-80
2022/05/15 02:28:24;;;;;;;19.50;6.68;;;10.30;99.90;;;;;;5024203;28;20077;-80
2022/05/15 02:30:50;;;;;;;16.55;5.55;;;10.30;99.90;;;;;;5012767;28;20431;-80
2022/05/15 02:33:17;;;;;;;25.70;6.95;;;10.20;99.90;;;;;;5020788;28;20045;-80
2022/05/15 02:35:43;;;;;;;24.88;6.80;;;10.20;99.90;;;;;;5040098;28;20038;-80
2022/05/15 02:38:08;;;;;;;23.20;6.85;;;10.20;99.90;;;;;;5011833;28;20053;-81
2022/05/15 02:40:35;;;;;;;18.40;5.90;;;10.20;99.90;;;;;;5039680;28;20393;-81
2022/05/15 02:43:00;;;;;;;24.88;6.43;;;10.20;99.90;;;;;;5038751;28;20277;-80
2022/05/15 02:45:29;;;;;;;23.48;6.97;;;10.20;99.90;;;;;;5023136;28;20060;-81
2022/05/15 02:47:55;;;;;;;15.30;5.68;;;10.20;99.90;;;;;;5023425;28;20539;-81
2022/05/15 02:53:07;;;;;;;13.30;6.35;;;10.10;99.90;;;;;;5027742;28;20060;-81
2022/05/15 02:55:33;;;;;;;20.55;5.85;;;10.00;99.90;;;;;;5021553;28;20131;-80
2022/05/15 02:57:59;;;;;;;17.70;5.93;;;10.00;99.90;;;;;;5044772;28;20552;-79
2022/05/15 03:00:27;;;;;;;23.27;6.72;;;10.00;99.90;;;;;;5024122;28;20128;-79
2022/05/15 03:02:53;;;;;;;13.68;5.88;;;9.90;99.90;;;;;;5031527;28;20052;-79
2022/05/15 03:05:20;;;;;;;18.17;5.53;;;9.90;99.90;;;;;;5004351;28;20243;-79
2022/05/15 03:07:46;;;;;;;16.75;6.30;;;9.90;99.90;;;;;;5038425;28;20068;-80
2022/05/15 03:10:16;;;;;;;18.27;6.13;;;10.70;99.90;;;;;;5023618;28;20122;-81
2022/05/15 03:12:42;;;;;;;19.55;5.97;;;9.90;99.90;;;;;;5023275;28;20041;-80
2022/05/15 03:15:11;;;;;;;14.50;5.38;;;9.90;99.90;;;;;;5021386;28;20656;-82
2022/05/15 03:17:37;;;;;;;17.65;5.13;;;9.90;99.90;;;;;;5021056;28;20409;-81
2022/05/15 03:20:05;;;;;;;19.20;6.43;;;9.80;99.90;;;;;;5021657;28;20125;-78
2022/05/15 03:22:31;;;;;;;17.13;6.05;;;9.80;99.90;;;;;;5007700;28;20102;-81
2022/05/15 03:24:56;;;;;;;17.10;5.78;;;9.70;99.90;;;;;;5041945;28;20422;-80
2022/05/15 03:27:22;;;;;;;19.35;6.63;;;9.70;99.90;;;;;;5041552;28;20094;-80
2022/05/15 03:29:47;;;;;;;19.85;6.82;;;9.60;99.90;;;;;;5049770;28;20499;-80
2022/05/15 03:32:13;;;;;;;13.30;5.25;;;9.60;99.90;;;;;;5038775;28;20129;-81
2022/05/15 03:34:38;;;;;;;20.48;5.50;;;9.50;99.90;;;;;;5038547;28;20054;-81
2022/05/15 03:37:04;;;;;;;16.60;5.43;;;9.50;99.90;;;;;;5022211;28;20049;-81
2022/05/15 03:39:30;;;;;;;17.70;5.97;;;9.40;99.90;;;;;;5024607;28;20059;-80
2022/05/15 03:41:56;;;;;;;22.05;5.22;;;9.60;99.90;;;;;;5022854;28;20041;-79
2022/05/15 03:44:22;;;;;;;19.50;5.93;;;9.20;99.90;;;;;;5041530;28;20059;-81
2022/05/15 03:46:48;;;;;;;20.70;6.05;;;9.20;99.90;;;;;;5024090;28;20488;-81
2022/05/15 03:49:14;;;;;;;17.80;5.65;;;9.30;99.90;;;;;;5019884;28;20058;-80
2022/05/15 03:51:41;;;;;;;16.80;5.90;;;9.30;99.90;;;;;;5038362;28;20053;-80
2022/05/15 03:54:10;;;;;;;16.83;5.95;;;9.30;99.90;;;;;;5022222;28;20041;-81
2022/05/15 03:56:50;;;;;;;24.50;6.47;;;9.40;99.90;;;;;;5022883;28;20045;-80
2022/05/15 03:59:27;;;;;;;21.55;6.40;;;9.40;99.90;;;;;;5020801;28;20045;-80
2022/05/15 04:01:53;;;;;;;24.08;5.47;;;9.40;99.90;;;;;;5037361;28;20045;-80
2022/05/15 04:04:19;;;;;;;21.13;5.88;;;9.40;99.90;;;;;;5022571;28;20082;-80
2022/05/15 04:06:46;;;;;;;18.17;5.70;;;10.20;99.90;;;;;;5007072;28;20429;-80
2022/05/15 04:09:12;;;;;;;24.70;6.53;;;9.40;99.90;;;;;;5003649;28;20457;-80
2022/05/15 04:11:41;;;;;;;25.02;6.55;;;9.40;99.90;;;;;;5020246;28;20456;-81
2022/05/15 04:14:09;;;;;;;24.27;6.88;;;9.50;99.90;;;;;;5021495;28;20053;-80
2022/05/15 04:16:35;;;;;;;21.33;6.32;;;9.40;99.90;;;;;;5006516;28;20477;-80
2022/05/15 04:19:02;;;;;;;27.30;6.78;;;9.40;99.90;;;;;;5005482;28;20084;-79
2022/05/15 04:21:36;;;;;;;22.60;6.60;;;10.90;99.90;;;;;;5003453;28;20037;-80
2022/05/15 04:24:06;;;;;;;;;;;9.40;99.90;;;;;;5019832;28;20045;-80
2022/05/15 04:26:32;;;;;;;26.35;6.28;;;9.40;99.90;;;;;;5040100;28;20284;-80
2022/05/15 04:28:57;;;;;;;27.75;6.97;;;9.40;99.90;;;;;;5022628;28;20041;-80
2022/05/15 04:31:26;;;;;;;25.67;7.35;;;9.60;99.90;;;;;;5040346;28;20053;-80
2022/05/15 04:33:52;;;;;;;36.72;9.75;;;9.40;99.90;;;;;;5041603;28;20064;-80
2022/05/15 04:36:17;;;;;;;30.48;7.25;;;9.40;99.90;;;;;;5040240;28;20041;-81
2022/05/15 04:38:45;;;;;;;33.97;7.85;;;9.30;99.90;;;;;;5022674;28;20377;-79
2022/05/15 04:41:13;;;;;;;20.92;6.55;;;9.30;99.90;;;;;;5020691;28;20442;-80
2022/05/15 04:43:39;;;;;;;32.13;7.50;;;9.30;99.90;;;;;;5003579;28;20050;-80
2022/05/15 04:46:08;;;;;;;28.25;7.90;;;9.30;99.90;;;;;;5002754;28;20497;-80
2022/05/15 04:48:35;;;;;;;28.38;7.55;;;9.40;99.90;;;;;;5022844;28;20115;-80
2022/05/15 04:51:00;;;;;;;27.90;8.45;;;9.40;99.90;;;;;;5014297;28;20120;-80
2022/05/15 04:53:27;;;;;;;24.73;7.10;;;9.40;99.90;;;;;;5047279;28;20619;-80
2022/05/15 04:55:53;;;;;;;26.88;7.22;;;9.50;99.90;;;;;;5040761;28;20127;-78
2022/05/15 04:58:19;;;;;;;23.23;6.90;;;9.50;99.90;;;;;;5019738;28;20507;-79
2022/05/15 05:00:49;;;;;;;23.88;7.55;;;9.40;99.90;;;;;;5025891;28;20036;-78
2022/05/15 05:03:15;;;;;;;32.28;7.80;;;9.50;99.90;;;;;;5045021;28;20041;-79
2022/05/15 05:05:41;;;;;;;25.67;7.30;;;9.40;99.90;;;;;;5007439;28;20041;-79
2022/05/15 05:08:09;;;;;;;31.55;7.88;;;9.60;99.90;;;;;;5020821;28;20075;-80
2022/05/15 05:10:35;;;;;;;29.58;7.93;;;10.50;99.90;;;;;;5019251;28;20047;-79
2022/05/15 05:13:00;;;;;;;36.65;8.85;;;9.70;99.90;;;;;;5001528;28;20041;-81
2022/05/15 05:15:27;;;;;;;36.10;8.50;;;9.70;99.90;;;;;;5022593;28;20163;-80
2022/05/15 05:17:54;;;;;;;25.70;7.60;;;9.80;99.90;;;;;;5022680;28;20472;-80
2022/05/15 05:20:20;;;;;;;30.90;7.90;;;9.80;99.90;;;;;;5019497;28;20571;-81
2022/05/15 05:22:45;;;;;;;27.27;7.90;;;9.80;99.90;;;;;;5002329;28;20049;-81
2022/05/15 05:25:14;;;;;;;32.47;8.13;;;9.80;99.90;;;;;;5036799;28;20045;-81
2022/05/15 05:27:43;;;;;;;25.20;7.68;;;9.40;99.90;;;;;;5006784;28;20330;-81
2022/05/15 05:30:19;;;;;;;35.47;9.65;;;9.90;99.90;;;;;;5021412;28;20116;-81
2022/05/15 05:32:45;;;;;;;29.15;7.30;;;9.90;99.90;;;;;;5036820;28;20187;-80
2022/05/15 05:35:12;;;;;;;24.95;8.13;;;10.00;99.90;;;;;;5018720;28;20103;-81
2022/05/15 05:37:37;;;;;;;21.95;7.40;;;10.00;99.90;;;;;;5006143;28;20044;-80
2022/05/15 05:40:06;;;;;;;23.23;7.78;;;10.00;99.90;;;;;;5005353;28;20096;-79
2022/05/15 05:42:32;;;;;;;26.77;7.60;;;10.10;99.90;;;;;;5035653;28;20504;-80
2022/05/15 05:44:57;;;;;;;22.27;8.02;;;10.10;99.90;;;;;;5009084;28;20033;-80
2022/05/15 05:47:27;;;;;;;25.05;7.10;;;10.20;99.90;;;;;;5036804;28;20079;-80
2022/05/15 05:49:56;;;;;;;33.65;8.45;;;10.30;99.90;;;;;;5002268;28;20034;-79
2022/05/15 05:52:23;;;;;;;28.05;8.40;;;10.30;99.90;;;;;;5027000;28;20535;-79
2022/05/15 05:54:50;;;;;;;34.20;8.25;;;10.40;99.90;;;;;;5001920;28;20374;-80
2022/05/15 05:57:16;;;;;;;28.92;8.25;;;10.40;99.90;;;;;;5019609;28;20048;-80
2022/05/15 05:59:42;;;;;;;31.67;9.23;;;10.50;99.90;;;;;;5005829;28;20033;-79
2022/05/15 06:02:09;;;;;;;29.35;8.60;;;10.50;99.90;;;;;;5020383;28;20107;-81
2022/05/15 06:04:44;;;;;;;34.53;9.23;;;10.60;99.90;;;;;;5027297;28;20048;-80
2022/05/15 06:07:15;;;;;;;29.13;9.20;;;10.70;99.90;;;;;;5018515;28;20527;-79
2022/05/15 06:09:44;;;;;;;30.77;9.38;;;10.80;99.90;;;;;;5021554;28;20041;-80
2022/05/15 06:12:12;;;;;;;27.70;10.00;;;10.80;99.90;;;;;;5021424;28;20507;-79
2022/05/15 06:14:44;;;;;;;35.13;9.43;;;10.90;99.90;;;;;;5023525;28;20102;-80
2022/05/15 06:17:13;;;;;;;32.65;9.20;;;11.00;99.90;;;;;;5021369;28;20145;-80
2022/05/15 06:19:40;;;;;;;32.35;10.05;;;11.00;99.90;;;;;;5021235;28;20116;-80
2022/05/15 06:22:07;;;;;;;38.50;9.55;;;11.10;99.90;;;;;;5029126;28;20378;-81
2022/05/15 06:24:33;;;;;;;37.50;9.25;;;11.20;99.90;;;;;;5005835;28;20523;-80
2022/05/15 06:27:05;;;;;;;41.30;9.55;;;11.30;99.90;;;;;;5012968;28;20128;-81
2022/05/15 06:29:31;;;;;;;32.90;8.50;;;11.40;99.90;;;;;;5006209;28;20042;-80
2022/05/15 06:31:57;;;;;;;31.70;7.97;;;11.40;99.90;;;;;;5039321;28;20045;-80
2022/05/15 06:34:23;;;;;;;32.65;8.50;;;11.50;99.90;;;;;;5041512;28;20474;-80
2022/05/15 06:36:49;;;;;;;32.42;8.90;;;11.60;99.90;;;;;;5033101;28;20100;-81
2022/05/15 06:39:14;;;;;;;27.45;7.80;;;11.50;99.90;;;;;;5008694;28;20123;-80
2022/05/15 06:41:41;;;;;;;26.67;7.32;;;11.70;99.90;;;;;;5023268;28;20515;-81
2022/05/15 06:44:07;;;;;;;34.70;7.47;;;11.80;99.90;;;;;;5009939;28;20141;-81
2022/05/15 06:46:33;;;;;;;28.40;7.28;;;11.90;99.90;;;;;;5011549;28;20524;-81
2022/05/15 06:48:59;;;;;;;29.67;7.22;;;13.30;99.90;;;;;;5016853;28;20400;-81
2022/05/15 06:51:26;;;;;;;21.45;5.80;;;12.10;99.90;;;;;;5022938;28;20051;-80
2022/05/15 06:53:52;;;;;;;28.58;7.60;;;12.10;99.90;;;;;;5021257;28;20405;-80
2022/05/15 06:59:24;;;;;;;25.92;7.35;;;12.30;99.90;;;;;;4956686;28;20511;-81
2022/05/15 07:01:49;;;;;;;22.85;6.93;;;12.40;99.90;;;;;;4964679;28;20621;-81
2022/05/15 07:04:15;;;;;;;26.13;6.82;;;12.40;99.90;;;;;;4993398;28;20151;-80
2022/05/15 07:06:43;;;;;;;25.05;6.05;;;12.50;99.90;;;;;;5024188;28;20045;-80
2022/05/15 07:09:08;;;;;;;23.67;5.75;;;12.60;99.90;;;;;;5042152;28;20037;-80
2022/05/15 07:11:37;;;;;;;27.13;7.47;;;12.60;99.90;;;;;;5030207;28;20045;-81
2022/05/15 07:14:04;;;;;;;24.30;6.68;;;12.70;99.90;;;;;;5020039;28;20056;-81
2022/05/15 07:16:30;;;;;;;25.42;6.05;;;12.80;99.90;;;;;;5046602;28;20042;-80
2022/05/15 07:18:55;;;;;;;15.35;4.57;;;12.90;99.90;;;;;;5008071;28;20048;-79
2022/05/15 07:21:21;;;;;;;24.77;6.03;;;12.90;99.90;;;;;;5041401;28;20464;-80
2022/05/15 07:23:46;;;;;;;25.17;6.53;;;13.20;99.90;;;;;;5021158;28;20128;-80
2022/05/15 07:26:12;;;;;;;22.52;7.28;;;13.10;99.90;;;;;;5020306;28;20116;-80
2022/05/15 07:28:37;;;;;;;16.90;5.03;;;13.10;99.90;;;;;;5048095;28;20107;-81
2022/05/15 07:31:08;;;;;;;21.60;5.45;;;13.20;99.90;;;;;;5014706;28;20467;-80
2022/05/15 07:33:34;;;;;;;16.83;4.65;;;13.30;99.90;;;;;;5021613;28;20077;-82
2022/05/15 07:35:59;;;;;;;20.38;5.45;;;13.40;99.90;;;;;;5020254;28;20127;-79
2022/05/15 07:38:25;;;;;;;16.20;6.20;;;13.30;99.90;;;;;;5028774;28;20041;-79
2022/05/15 07:40:52;;;;;;;18.95;5.05;;;13.60;99.90;;;;;;5020166;28;20045;-80
2022/05/15 07:43:18;;;;;;;22.40;5.55;;;13.90;99.90;;;;;;5020896;28;20037;-81
2022/05/15 07:45:46;;;;;;;17.23;4.00;;;13.90;99.90;;;;;;5024465;28;20055;-81
2022/05/15 07:48:12;;;;;;;19.27;5.10;;;14.00;99.90;;;;;;5047806;28;20076;-83
2022/05/15 07:50:38;;;;;;;18.63;5.32;;;14.10;99.90;;;;;;5039728;28;20033;-82
2022/05/15 07:53:05;;;;;;;15.80;4.47;;;14.10;99.90;;;;;;5003249;28;20493;-80
2022/05/15 07:55:30;;;;;;;19.65;5.25;;;14.20;99.90;;;;;;5020788;28;20047;-80
2022/05/15 07:57:56;;;;;;;19.08;5.07;;;14.20;99.90;;;;;;5006913;28;20047;-81
2022/05/15 08:00:21;;;;;;;18.98;4.93;;;14.30;99.90;;;;;;5048743;28;20128;-81
2022/05/15 08:02:47;;;;;;;17.65;4.85;;;14.40;99.90;;;;;;5037616;28;20057;-80
2022/05/15 08:08:01;;;;;;;23.50;5.53;;;14.50;99.90;;;;;;5022044;28;20087;-81
2022/05/15 08:10:36;;;;;;;16.88;4.40;;;14.60;99.90;;;;;;5006705;28;20060;-81
2022/05/15 08:13:07;;;;;;;20.52;4.70;;;14.70;99.90;;;;;;5002614;28;20045;-82
2022/05/15 08:15:35;;;;;;;15.40;4.13;;;14.70;99.90;;;;;;5039012;28;20056;-81
2022/05/15 08:23:33;;;;;;;15.80;4.53;;;14.80;99.90;;;;;;5040700;28;20599;-81
2022/05/15 08:23:40;;;;;;;15.90;4.32;;;14.90;99.90;;;;;;5038215;28;20045;-80
2022/05/15 08:26:09;;;;;;;23.00;4.68;;;15.10;99.90;;;;;;5041410;28;20044;-81
2022/05/15 08:28:35;;;;;;;16.65;4.18;;;15.10;99.90;;;;;;5023940;28;20045;-82
2022/05/15 08:31:02;;;;;;;16.45;4.10;;;15.60;99.90;;;;;;5027174;28;20374;-81
2022/05/15 08:33:31;;;;;;;16.58;4.10;;;15.30;99.90;;;;;;5040283;28;20053;-82
2022/05/15 08:35:57;;;;;;;20.58;5.00;;;15.30;99.90;;;;;;5023475;28;20549;-81
2022/05/15 08:38:23;;;;;;;18.67;4.25;;;15.40;99.90;;;;;;5006440;28;20041;-81
2022/05/15 08:41:02;;;;;;;21.23;4.28;;;15.50;99.90;;;;;;5004278;28;20043;-81
2022/05/15 08:43:42;;;;;;;19.50;4.18;;;15.60;99.90;;;;;;5036478;28;20053;-80
2022/05/15 08:46:26;;;;;;;19.85;3.97;;;15.70;99.90;;;;;;5029970;28;20095;-81
2022/05/15 08:49:06;;;;;;;22.35;6.05;;;15.80;99.90;;;;;;5027978;28;20073;-81
2022/05/15 08:51:51;;;;;;;19.92;4.68;;;15.80;99.90;;;;;;5020156;28;20045;-82
2022/05/15 08:54:17;;;;;;;18.67;5.15;;;15.90;99.90;;;;;;5023087;28;20546;-81
2022/05/15 08:56:50;;;;;;;18.17;4.88;;;16.10;99.90;;;;;;5021320;28;20045;-82
2022/05/15 08:59:23;;;;;;;22.55;5.32;;;16.20;99.90;;;;;;5036491;28;20400;-83
2022/05/15 09:01:51;;;;;;;19.90;4.22;;;16.30;99.90;;;;;;5011885;28;20049;-81
2022/05/15 09:04:17;;;;;;;20.45;3.92;;;16.40;99.90;;;;;;5018544;28;20616;-81
2022/05/15 09:06:51;;;;;;;19.50;5.00;;;16.40;99.90;;;;;;5004375;28;20136;-82
2022/05/15 09:09:48;;;;;;;18.88;4.80;;;16.50;99.90;;;;;;5006817;28;20084;-80
2022/05/15 09:12:21;;;;;;;32.28;5.50;;;16.50;99.90;;;;;;5040889;28;20047;-82
2022/05/15 09:15:01;;;;;;;15.98;4.10;;;16.60;99.90;;;;;;5038823;28;20071;-83
2022/05/15 09:17:45;;;;;;;19.27;4.43;;;16.70;99.90;;;;;;5019603;28;20063;-81
2022/05/15 09:20:26;;;;;;;24.48;5.68;;;16.70;99.90;;;;;;5036323;28;20041;-82
2022/05/15 09:23:14;;;;;;;19.45;4.45;;;16.80;99.90;;;;;;5004435;28;20049;-79
2022/05/15 09:25:39;;;;;;;53.38;27.80;;;17.00;99.90;;;;;;5003115;28;20060;-83
2022/05/15 09:28:10;;;;;;;20.58;5.22;;;17.00;99.90;;;;;;5021853;28;20040;-83
2022/05/15 09:30:41;;;;;;;22.25;4.93;;;17.50;99.90;;;;;;5040519;28;20119;-81
2022/05/15 09:33:06;;;;;;;15.88;4.10;;;17.10;99.90;;;;;;5017700;28;20400;-84
2022/05/15 09:35:39;;;;;;;17.92;4.05;;;17.60;99.90;;;;;;5002786;28;20042;-81
2022/05/15 09:43:54;;;;;;;16.50;3.97;;;17.60;99.90;;;;;;5038872;28;20042;-82
2022/05/15 09:46:25;;;;;;;21.50;4.47;;;17.70;99.90;;;;;;5005855;28;20087;-82
2022/05/15 09:49:03;;;;;;;19.52;3.90;;;17.70;99.90;;;;;;5020434;28;20037;-80
2022/05/15 09:51:54;;;;;;;14.73;4.32;;;17.80;99.90;;;;;;5018869;28;20073;-82
2022/05/15 09:54:37;;;;;;;13.57;4.18;;;17.90;99.90;;;;;;5019947;28;20034;-80
2022/05/15 09:57:11;;;;;;;15.63;4.13;;;17.90;99.90;;;;;;5009061;28;20076;-81
2022/05/15 09:59:41;;;;;;;18.05;4.53;;;18.10;99.90;;;;;;5026236;28;20037;-81
2022/05/15 10:02:18;;;;;;;20.63;4.82;;;18.10;99.90;;;;;;5038745;28;20413;-82
2022/05/15 10:04:48;;;;;;;12.00;3.65;;;18.20;99.90;;;;;;5041375;28;20504;-81
2022/05/15 10:07:44;;;;;;;18.30;4.60;;;18.30;99.90;;;;;;5008652;28;20033;-81
2022/05/15 10:10:39;;;;;;;23.27;4.72;;;18.40;99.90;;;;;;5044201;28;20033;-81
2022/05/15 10:13:12;;;;;;;19.17;4.70;;;18.50;99.90;;;;;;5025614;28;20076;-82
2022/05/15 10:15:44;;;;;;;18.58;4.00;;;18.60;99.90;;;;;;5047159;28;20048;-81
2022/05/15 10:18:22;;;;;;;16.85;4.43;;;18.70;99.90;;;;;;5049329;28;20033;-81
2022/05/15 10:20:50;;;;;;;17.90;4.20;;;18.80;99.90;;;;;;5033461;28;20667;-82
2022/05/15 10:23:28;;;;;;;17.25;3.80;;;18.90;99.90;;;;;;5004601;28;20191;-82
2022/05/15 10:26:12;;;;;;;22.40;3.67;;;19.00;99.90;;;;;;5029985;28;20511;-82
2022/05/15 10:29:03;;;;;;;20.30;4.15;;;19.10;99.90;;;;;;5039656;28;20053;-82
2022/05/15 10:31:35;;;;;;;20.23;4.65;;;19.10;99.90;;;;;;5021942;28;20593;-83
2022/05/15 10:34:10;;;;;;;11.43;3.50;;;19.20;99.90;;;;;;5047506;28;20044;-82
2022/05/15 10:37:15;;;;;;;21.40;4.00;;;19.80;99.90;;;;;;5024609;28;20036;-82
2022/05/15 10:40:09;;;;;;;15.15;4.00;;;19.40;99.90;;;;;;5039110;28;20057;-81
2022/05/15 10:43:17;;;;;;;20.20;4.30;;;19.50;99.90;;;;;;5041436;28;20421;-83
2022/05/15 10:46:08;;;;;;;20.45;4.85;;;19.60;99.90;;;;;;5021602;28;20049;-83
2022/05/15 10:49:15;;;;;;;16.10;3.63;;;19.70;99.50;;;;;;5027571;28;20052;-76
2022/05/15 10:52:19;;;;;;;19.25;4.07;;;19.70;98.40;;;;;;5024048;28;20041;-82
2022/05/15 10:57:36;;;;;;;17.88;3.65;;;20.00;99.30;;;;;;5047339;28;20052;-81
2022/05/15 11:00:20;;;;;;;21.15;4.50;;;19.90;98.10;;;;;;5005500;28;20099;-82
2022/05/15 11:03:05;;;;;;;21.85;4.05;;;20.00;98.50;;;;;;5021456;28;20049;-81
2022/05/15 11:05:56;;;;;;;19.98;4.55;;;20.10;98.70;;;;;;5003644;28;20045;-80
2022/05/15 11:08:29;;;;;;;13.60;4.13;;;20.30;98.00;;;;;;5025123;28;20052;-81
2022/05/15 11:11:09;;;;;;;18.10;3.70;;;20.40;97.50;;;;;;5022028;28;20053;-80
2022/05/15 11:13:41;;;;;;;16.55;3.75;;;20.60;97.50;;;;;;5042234;28;20064;-82
2022/05/15 11:16:41;;;;;;;15.60;3.78;;;20.70;96.60;;;;;;5046234;28;20071;-85
2022/05/15 11:19:28;;;;;;;14.18;3.80;;;20.80;96.20;;;;;;4999529;28;20559;-85
2022/05/15 11:22:31;;;;;;;16.80;4.18;;;20.80;96.10;;;;;;5049898;28;20076;-79
2022/05/15 11:25:25;;;;;;;19.52;3.97;;;20.90;94.10;;;;;;5046599;28;20055;-79
2022/05/15 11:28:03;;;;;;;16.83;3.97;;;21.00;94.50;;;;;;5032505;28;20129;-79
2022/05/15 11:30:34;;;;;;;20.10;3.88;;;21.00;95.00;;;;;;5028504;28;20382;-82
2022/05/15 11:33:08;;;;;;;17.92;4.40;;;21.30;94.80;;;;;;5040168;28;20119;-81
2022/05/15 11:35:39;;;;;;;21.98;4.28;;;21.40;94.30;;;;;;5021425;28;20489;-85
2022/05/15 11:38:20;;;;;;;17.27;4.38;;;22.00;94.20;;;;;;5043592;28;20053;-81
2022/05/15 11:40:51;;;;;;;15.40;4.30;;;21.60;93.50;;;;;;5037197;28;20040;-83
2022/05/15 11:43:28;;;;;;;28.30;4.47;;;21.80;93.50;;;;;;5003212;28;20057;-73
2022/05/15 11:45:57;;;;;;;16.85;4.95;;;21.80;92.50;;;;;;5028822;28;20040;-74
2022/05/15 11:48:38;;;;;;;17.27;3.97;;;21.90;92.40;;;;;;5002588;28;20116;-73
2022/05/15 11:51:12;;;;;;;17.75;4.05;;;22.00;91.50;;;;;;5004313;28;20142;-73
2022/05/15 11:53:47;;;;;;;14.27;3.83;;;21.80;91.50;;;;;;5019859;28;20050;-76
2022/05/15 11:56:22;;;;;;;17.83;4.03;;;21.70;91.20;;;;;;5022497;28;20046;-75
2022/05/15 11:58:57;;;;;;;12.13;3.28;;;21.70;91.50;;;;;;5041211;28;20504;-74
2022/05/15 12:01:32;;;;;;;15.68;3.88;;;21.90;90.90;;;;;;5023087;28;20033;-75
2022/05/15 12:04:21;;;;;;;13.02;3.65;;;21.90;91.80;;;;;;5018160;28;20076;-75
2022/05/15 12:06:55;;;;;;;19.50;4.60;;;22.10;90.90;;;;;;5036856;28;20274;-79
2022/05/15 12:09:33;;;;;;;13.75;3.83;;;22.20;90.60;;;;;;5027943;28;20038;-79
2022/05/15 12:12:20;;;;;;;13.52;3.38;;;22.40;90.20;;;;;;5029561;28;20048;-82
2022/05/15 12:15:19;;;;;;;17.27;3.78;;;22.60;89.60;;;;;;5022861;28;20049;-81
2022/05/15 12:17:59;;;;;;;12.38;3.42;;;22.60;88.60;;;;;;5020238;28;20046;-82
2022/05/15 12:20:28;;;;;;;15.55;2.70;;;22.90;88.00;;;;;;5020028;28;20052;-84
2022/05/15 12:23:01;;;;;;;12.07;3.28;;;23.10;85.80;;;;;;5002416;28;20064;-81
2022/05/15 12:25:39;;;;;;;11.98;3.00;;;23.20;83.70;;;;;;5037663;28;20501;-80
2022/05/15 12:28:51;;;;;;;12.50;3.58;;;23.20;82.10;;;;;;5003701;28;20068;-83
2022/05/15 12:31:41;;;;;;;12.07;3.80;;;23.30;82.60;;;;;;5014552;28;20045;-79
2022/05/15 12:34:26;;;;;;;14.68;3.78;;;23.50;81.80;;;;;;5022487;28;20115;-79
2022/05/15 12:36:58;;;;;;;13.75;3.97;;;23.80;80.20;;;;;;5022176;28;20132;-76
2022/05/15 12:39:29;;;;;;;13.37;3.27;;;23.80;78.70;;;;;;5019837;28;20053;-80
2022/05/15 12:42:00;;;;;;;8.90;3.15;;;23.80;77.50;;;;;;5044735;28;20516;-82
2022/05/15 12:44:36;;;;;;;12.45;2.83;;;23.70;76.30;;;;;;5041690;28;20041;-72
2022/05/15 12:47:05;;;;;;;13.55;2.90;;;23.50;77.80;;;;;;5005624;28;20086;-72
2022/05/15 12:49:40;;;;;;;9.73;2.70;;;23.60;78.20;;;;;;5038893;28;20038;-72
2022/05/15 12:52:13;;;;;;;12.93;2.95;;;23.90;77.70;;;;;;5021381;28;20052;-72
2022/05/15 12:54:40;;;;;;;16.38;3.58;;;23.70;77.80;;;;;;5016834;28;20052;-72
2022/05/15 12:57:09;;;;;;;11.05;3.28;;;23.80;77.10;;;;;;5018158;28;20045;-71
2022/05/15 12:59:38;;;;;;;12.50;3.53;;;23.90;77.20;;;;;;5038074;28;20048;-73
2022/05/15 13:02:32;;;;;;;16.23;3.83;;;23.80;77.00;;;;;;5004596;28;20048;-72
2022/05/15 13:05:05;;;;;;;12.63;3.08;;;23.90;76.30;;;;;;5004083;28;20497;-71
2022/05/15 13:07:38;;;;;;;17.35;3.08;;;23.90;76.60;;;;;;5030634;28;20045;-72
2022/05/15 13:10:11;;;;;;;18.65;2.92;;;24.10;75.20;;;;;;5003094;28;20087;-87
2022/05/15 13:12:52;;;;;;;14.10;2.80;;;24.10;74.50;;;;;;5034847;28;20053;-80
2022/05/15 13:15:23;;;;;;;15.85;3.97;;;24.10;73.00;;;;;;4999586;28;20710;-75
2022/05/15 13:17:49;;;;;;;11.02;3.38;;;24.10;73.80;;;;;;5039760;28;20039;-75
2022/05/15 13:20:20;;;;;;;10.52;2.88;;;24.30;72.70;;;;;;5015195;28;20712;-74